Darstellungsparameter: Aktuell verwendete Einstellungen:
Skalierung der Graphiken ... ?
xyx+y,   Skalierungsfaktor:      Skalierung: Modus: x, Faktor: 1
Darstellungszeitraum ... ?
Vom - - bis: - -   Zeitraum: 18.10.2018 - 20.10.2018
Min/Max/Avg-Anzeige ... ?
Zeige MMA aktuell
Zeige MMA Monat
Zeige MMA alles
Zeige --A aktuell
Zeige --A Monat
Zeige --A alles
Keine MMA-Anzeige
MMA:
Average (ber die Originaldaten)
MMA-Basis: 18.10.2018 - 20.10.2018
Quicknavigation für Darstellung... ?
Tage:      1T, 2T, 3T, 5T -1T -2T -3T -5T +1T +2T +3T +5T
Wochen: 1W, 2W, 3W -1W -2W -3W +1W +2W +3W
Monate: 1M, 3M, 6M -1M -3M -6M +1M +3M +6M
Jahre:    1J, 3J, 5J, 10J -1J -3J -5J -10J +1J +3J +5J +10J
Nutze für die Darstellung ... ?
Originaldaten oder Mittelwerte auf ...
Stundenbasis Tagesbasis Wochenbasis
Monatsbasis Jahresbasis      Datenbasis: Original-Daten
Darstellen als:
Statistik (Auto) Statistik J:M      Darstellung:
Zur Graphik,    zurück zur Übersicht aller Sensoren.
 
Tabellarische Datenbersicht: ?
 
Sensor: Nr:Datum:Temp:Abs-Feuchte:Windchill:Wind:
Aussen-T/F 1 18-10-2018 00:00:00 12.2 C 9.82 g/m*3 12.2 C 0 km/h
2 18-10-2018 00:05:00 12.2 C 9.82 g/m*3 12.2 C 0 km/h
3 18-10-2018 00:10:00 12.2 C 9.82 g/m*3 12.2 C 0 km/h
4 18-10-2018 00:15:00 12.2 C 9.82 g/m*3 12.2 C 0 km/h
5 18-10-2018 00:20:00 12.1 C 9.76 g/m*3 12.1 C 0 km/h
6 18-10-2018 00:25:00 12 C 9.7 g/m*3 12 C 0 km/h
7 18-10-2018 00:30:00 11.9 C 9.64 g/m*3 11.9 C 0 km/h
8 18-10-2018 00:35:00 11.9 C 9.74 g/m*3 11.9 C 0 km/h
9 18-10-2018 00:40:00 11.8 C 9.58 g/m*3 11.8 C 0 km/h
10 18-10-2018 00:45:00 11.8 C 9.68 g/m*3 11.8 C 0 km/h
11 18-10-2018 00:50:00 11.8 C 9.68 g/m*3 11.8 C 0 km/h
12 18-10-2018 00:55:00 11.8 C 9.68 g/m*3 11.8 C 0 km/h
13 18-10-2018 01:00:00 11.7 C 9.62 g/m*3 11.7 C 0 km/h
14 18-10-2018 01:05:00 11.6 C 9.56 g/m*3 11.6 C 0 km/h
15 18-10-2018 01:10:00 11.6 C 9.56 g/m*3 11.6 C 0 km/h
16 18-10-2018 01:15:00 11.5 C 9.5 g/m*3 11.5 C 0 km/h
17 18-10-2018 01:20:00 11.4 C 9.44 g/m*3 11.4 C 0 km/h
18 18-10-2018 01:25:00 11.4 C 9.44 g/m*3 11.4 C 0 km/h
19 18-10-2018 01:30:00 11.3 C 9.38 g/m*3 11.3 C 0 km/h
20 18-10-2018 01:35:00 11.2 C 9.33 g/m*3 11.2 C 0 km/h
21 18-10-2018 01:40:00 11.2 C 9.43 g/m*3 11.2 C 0 km/h
22 18-10-2018 01:45:00 11.2 C 9.43 g/m*3 11.2 C 0 km/h
23 18-10-2018 01:50:00 11.2 C 9.43 g/m*3 11.2 C 0 km/h
24 18-10-2018 01:55:00 11.1 C 9.37 g/m*3 11.1 C 0 km/h
25 18-10-2018 02:00:00 11.1 C 9.37 g/m*3 11.1 C 0 km/h
Sensor: Nr:Datum:Temp:Abs-Feuchte:Windchill:Wind:
Aussen-T/F 26 18-10-2018 02:05:00 11.2 C 9.43 g/m*3 11.2 C 0 km/h
27 18-10-2018 02:10:00 11.3 C 9.59 g/m*3 11.3 C 0 km/h
28 18-10-2018 02:15:00 11.3 C 9.59 g/m*3 11.3 C 0 km/h
29 18-10-2018 02:20:00 11.3 C 9.59 g/m*3 11.3 C 0 km/h
30 18-10-2018 02:25:00 11.5 C 9.81 g/m*3 11.5 C 0 km/h
31 18-10-2018 02:30:00 11.7 C 9.94 g/m*3 11.7 C 0 km/h
32 18-10-2018 02:35:00 11.7 C 9.94 g/m*3 11.7 C 0 km/h
33 18-10-2018 02:40:00 11.7 C 9.83 g/m*3 11.7 C 0 km/h
34 18-10-2018 02:45:00 11.7 C 9.94 g/m*3 11.7 C 0 km/h
35 18-10-2018 02:50:00 11.7 C 9.94 g/m*3 11.7 C 0 km/h
36 18-10-2018 02:55:00 11.7 C 9.94 g/m*3 11.7 C 0 km/h
37 18-10-2018 03:00:00 11.7 C 9.94 g/m*3 11.7 C 0 km/h
38 18-10-2018 03:05:00 11.7 C 9.83 g/m*3 11.7 C 0 km/h
39 18-10-2018 03:10:00 11.7 C 9.83 g/m*3 11.7 C 0 km/h
40 18-10-2018 03:15:00 11.7 C 9.83 g/m*3 11.7 C 0 km/h
41 18-10-2018 03:20:00 11.7 C 9.94 g/m*3 11.7 C 0 km/h
42 18-10-2018 03:25:00 11.7 C 9.94 g/m*3 11.7 C 0 km/h
43 18-10-2018 03:30:00 11.6 C 9.77 g/m*3 11.6 C 0 km/h
44 18-10-2018 03:35:00 11.6 C 9.77 g/m*3 11.6 C 0 km/h
45 18-10-2018 03:40:00 11.5 C 9.71 g/m*3 11.5 C 0 km/h
46 18-10-2018 03:45:00 11.4 C 9.65 g/m*3 11.4 C 0 km/h
47 18-10-2018 03:50:00 11.3 C 9.59 g/m*3 11.3 C 1.6 km/h
48 18-10-2018 03:55:00 11.2 C 9.53 g/m*3 11.2 C 0 km/h
49 18-10-2018 04:00:00 11.2 C 9.53 g/m*3 11.2 C 0 km/h
50 18-10-2018 04:05:00 11.1 C 9.47 g/m*3 11.1 C 0 km/h
Sensor: Nr:Datum:Temp:Abs-Feuchte:Windchill:Wind:
Aussen-T/F 51 18-10-2018 04:10:00 10.9 C 9.35 g/m*3 10.9 C 0 km/h
52 18-10-2018 04:15:00 10.8 C 9.29 g/m*3 10.8 C 0 km/h
53 18-10-2018 04:20:00 10.8 C 9.29 g/m*3 10.8 C 0 km/h
54 18-10-2018 04:25:00 10.7 C 9.23 g/m*3 10.7 C 0 km/h
55 18-10-2018 04:30:00 10.6 C 9.17 g/m*3 10.6 C 0 km/h
56 18-10-2018 04:35:00 10.6 C 9.17 g/m*3 10.6 C 0 km/h
57 18-10-2018 04:40:00 10.6 C 9.27 g/m*3 10.6 C 0 km/h
58 18-10-2018 04:45:00 10.7 C 9.33 g/m*3 10.7 C 1.6 km/h
59 18-10-2018 04:50:00 10.8 C 9.39 g/m*3 10.8 C 0 km/h
60 18-10-2018 04:55:00 11.3 C 9.79 g/m*3 11.3 C 3.2 km/h
61 18-10-2018 05:00:00 11.8 C 10.21 g/m*3 11.8 C 0 km/h
62 18-10-2018 05:05:00 12.1 C 10.4 g/m*3 12.1 C 1.6 km/h
63 18-10-2018 05:10:00 12.3 C 10.42 g/m*3 12.3 C 3.2 km/h
64 18-10-2018 05:15:00 12.6 C 10.62 g/m*3 12.6 C 1.6 km/h
65 18-10-2018 05:20:00 12.7 C 10.69 g/m*3 12.7 C 4.8 km/h
66 18-10-2018 05:25:00 12.9 C 10.93 g/m*3 12.9 C 4.8 km/h
67 18-10-2018 05:30:00 13 C 10.89 g/m*3 13 C 8.1 km/h
68 18-10-2018 05:35:00 13.1 C 10.95 g/m*3 13.1 C 8.1 km/h
69 18-10-2018 05:40:00 13.1 C 10.95 g/m*3 13.1 C 0 km/h
70 18-10-2018 05:45:00 13.2 C 11.02 g/m*3 13.2 C 3.2 km/h
71 18-10-2018 05:50:00 13.2 C 11.02 g/m*3 13.2 C 0 km/h
72 18-10-2018 05:55:00 13.2 C 11.02 g/m*3 13.2 C 4.8 km/h
73 18-10-2018 06:00:00 13.2 C 11.02 g/m*3 13.2 C 0 km/h
74 18-10-2018 06:05:00 13.3 C 11.09 g/m*3 13.3 C 6.4 km/h
75 18-10-2018 06:10:00 13.3 C 11.09 g/m*3 13.3 C 1.6 km/h
Sensor: Nr:Datum:Temp:Abs-Feuchte:Windchill:Wind:
Aussen-T/F 76 18-10-2018 06:15:00 13.3 C 11.09 g/m*3 13.3 C 3.2 km/h
77 18-10-2018 06:20:00 13.3 C 11.09 g/m*3 13.3 C 1.6 km/h
78 18-10-2018 06:25:00 13.2 C 11.02 g/m*3 13.2 C 0 km/h
79 18-10-2018 06:30:00 13.2 C 10.91 g/m*3 13.2 C 0 km/h
80 18-10-2018 06:35:00 13.2 C 10.91 g/m*3 13.2 C 0 km/h
81 18-10-2018 06:40:00 13.2 C 10.91 g/m*3 13.2 C 0 km/h
82 18-10-2018 06:45:00 13.1 C 10.84 g/m*3 13.1 C 0 km/h
83 18-10-2018 06:50:00 13.1 C 10.84 g/m*3 13.1 C 0 km/h
84 18-10-2018 06:55:00 13 C 10.77 g/m*3 13 C 0 km/h
85 18-10-2018 07:00:00 13 C 10.77 g/m*3 13 C 0 km/h
86 18-10-2018 07:05:00 12.9 C 10.71 g/m*3 12.9 C 0 km/h
87 18-10-2018 07:10:00 12.9 C 10.71 g/m*3 12.9 C 0 km/h
88 18-10-2018 07:15:00 12.9 C 10.71 g/m*3 12.9 C 0 km/h
89 18-10-2018 07:20:00 12.9 C 10.71 g/m*3 12.9 C 0 km/h
90 18-10-2018 07:25:00 12.9 C 10.71 g/m*3 12.9 C 0 km/h
91 18-10-2018 07:30:00 13 C 10.77 g/m*3 13 C 0 km/h
92 18-10-2018 07:35:00 13 C 10.77 g/m*3 13 C 0 km/h
93 18-10-2018 07:40:00 13.1 C 10.95 g/m*3 13.1 C 4.8 km/h
94 18-10-2018 07:45:00 13.1 C 10.84 g/m*3 13.1 C 0 km/h
95 18-10-2018 07:50:00 13.1 C 10.84 g/m*3 13.1 C 1.6 km/h
96 18-10-2018 07:55:00 13.2 C 10.91 g/m*3 13.2 C 3.2 km/h
97 18-10-2018 08:00:00 13.2 C 10.91 g/m*3 13.2 C 1.6 km/h
98 18-10-2018 08:05:00 13.2 C 10.91 g/m*3 13.2 C 0 km/h
99 18-10-2018 08:10:00 13.2 C 10.91 g/m*3 13.2 C 1.6 km/h
100 18-10-2018 08:15:00 13.2 C 10.91 g/m*3 13.2 C 1.6 km/h
Sensor: Nr:Datum:Temp:Abs-Feuchte:Windchill:Wind:
Aussen-T/F 101 18-10-2018 08:20:00 13.2 C 10.91 g/m*3 13.2 C 0 km/h
102 18-10-2018 08:25:00 13.2 C 10.91 g/m*3 13.2 C 0 km/h
103 18-10-2018 08:30:00 13.3 C 10.98 g/m*3 13.3 C 0 km/h
104 18-10-2018 08:35:00 13.3 C 10.98 g/m*3 13.3 C 0 km/h
105 18-10-2018 08:40:00 13.3 C 10.98 g/m*3 13.3 C 0 km/h
106 18-10-2018 08:45:00 13.3 C 10.98 g/m*3 13.3 C 4.8 km/h
107 18-10-2018 08:50:00 13.3 C 10.98 g/m*3 13.3 C 0 km/h
108 18-10-2018 08:55:00 13.4 C 11.04 g/m*3 13.4 C 0 km/h
109 18-10-2018 09:00:00 13.4 C 11.04 g/m*3 13.4 C 6.4 km/h
110 18-10-2018 09:05:00 13.4 C 11.04 g/m*3 13.4 C 4.8 km/h
111 18-10-2018 09:10:00 13.4 C 11.04 g/m*3 13.4 C 1.6 km/h
112 18-10-2018 09:15:00 13.4 C 11.04 g/m*3 13.4 C 1.6 km/h
113 18-10-2018 09:20:00 13.5 C 11.11 g/m*3 13.5 C 4.8 km/h
114 18-10-2018 09:25:00 13.4 C 10.93 g/m*3 13.4 C 8.1 km/h
115 18-10-2018 09:30:00 13.4 C 10.93 g/m*3 13.4 C 4.8 km/h
116 18-10-2018 09:35:00 13.4 C 10.93 g/m*3 13.4 C 9.7 km/h
117 18-10-2018 09:40:00 13.4 C 10.93 g/m*3 13.4 C 9.7 km/h
118 18-10-2018 09:45:00 13.4 C 10.93 g/m*3 13.4 C 6.4 km/h
119 18-10-2018 09:50:00 13.3 C 10.74 g/m*3 13.3 C 9.7 km/h
120 18-10-2018 09:55:00 13.3 C 10.74 g/m*3 13.3 C 6.4 km/h
121 18-10-2018 10:00:00 13.3 C 10.74 g/m*3 13.3 C 8.1 km/h
122 18-10-2018 10:05:00 13.3 C 10.74 g/m*3 13.3 C 3.2 km/h
123 18-10-2018 10:10:00 13.4 C 10.81 g/m*3 13.4 C 4.8 km/h
124 18-10-2018 10:15:00 13.4 C 10.81 g/m*3 13.4 C 0 km/h
125 18-10-2018 10:20:00 13.4 C 10.69 g/m*3 13.4 C 0 km/h
Sensor: Nr:Datum:Temp:Abs-Feuchte:Windchill:Wind:
Aussen-T/F 126 18-10-2018 10:25:00 13.5 C 10.88 g/m*3 13.5 C 0 km/h
127 18-10-2018 10:30:00 13.6 C 10.95 g/m*3 13.6 C 0 km/h
128 18-10-2018 10:35:00 13.6 C 10.83 g/m*3 13.6 C 1.6 km/h
129 18-10-2018 10:40:00 13.6 C 10.83 g/m*3 13.6 C 0 km/h
130 18-10-2018 10:45:00 13.7 C 10.89 g/m*3 13.7 C 0 km/h
131 18-10-2018 10:50:00 13.7 C 10.89 g/m*3 13.7 C 3.2 km/h
132 18-10-2018 10:55:00 13.8 C 10.96 g/m*3 13.8 C 3.2 km/h
133 18-10-2018 11:00:00 13.8 C 10.96 g/m*3 13.8 C 3.2 km/h
134 18-10-2018 11:05:00 13.9 C 10.91 g/m*3 13.9 C 3.2 km/h
135 18-10-2018 11:10:00 14 C 10.98 g/m*3 14 C 3.2 km/h
136 18-10-2018 11:15:00 14.1 C 11.04 g/m*3 14.1 C 3.2 km/h
137 18-10-2018 11:20:00 14.2 C 10.99 g/m*3 14.2 C 3.2 km/h
138 18-10-2018 11:25:00 14.2 C 10.99 g/m*3 14.2 C 1.6 km/h
139 18-10-2018 11:30:00 14.3 C 11.06 g/m*3 14.3 C 1.6 km/h
140 18-10-2018 11:35:00 14.3 C 10.93 g/m*3 14.3 C 1.6 km/h
141 18-10-2018 11:40:00 14.4 C 11.13 g/m*3 14.4 C 1.6 km/h
142 18-10-2018 11:45:00 14.5 C 11.07 g/m*3 14.5 C 0 km/h
143 18-10-2018 11:50:00 14.6 C 11.14 g/m*3 14.6 C 0 km/h
144 18-10-2018 11:55:00 14.6 C 11.14 g/m*3 14.6 C 3.2 km/h
145 18-10-2018 12:00:00 14.7 C 11.08 g/m*3 14.7 C 1.6 km/h
146 18-10-2018 12:05:00 14.7 C 11.08 g/m*3 14.7 C 1.6 km/h
147 18-10-2018 12:10:00 14.8 C 11.02 g/m*3 14.8 C 1.6 km/h
148 18-10-2018 12:15:00 14.8 C 11.02 g/m*3 14.8 C 1.6 km/h
149 18-10-2018 12:20:00 15 C 11.16 g/m*3 15 C 3.2 km/h
150 18-10-2018 12:25:00 15.2 C 11.29 g/m*3 15.2 C 1.6 km/h
Sensor: Nr:Datum:Temp:Abs-Feuchte:Windchill:Wind:
Aussen-T/F 151 18-10-2018 12:30:00 15.3 C 11.23 g/m*3 15.3 C 1.6 km/h
152 18-10-2018 12:35:00 15.4 C 11.3 g/m*3 15.4 C 1.6 km/h
153 18-10-2018 12:40:00 15.5 C 11.24 g/m*3 15.5 C 1.6 km/h
154 18-10-2018 12:45:00 15.6 C 11.3 g/m*3 15.6 C 0 km/h
155 18-10-2018 12:50:00 15.7 C 11.24 g/m*3 15.7 C 0 km/h
156 18-10-2018 12:55:00 15.8 C 11.17 g/m*3 15.8 C 1.6 km/h
157 18-10-2018 13:00:00 15.8 C 11.17 g/m*3 15.8 C 3.2 km/h
158 18-10-2018 13:05:00 15.8 C 11.31 g/m*3 15.8 C 4.8 km/h
159 18-10-2018 13:10:00 15.9 C 11.24 g/m*3 15.9 C 1.6 km/h
160 18-10-2018 13:15:00 15.9 C 11.24 g/m*3 15.9 C 4.8 km/h
161 18-10-2018 13:20:00 16.1 C 11.38 g/m*3 16.1 C 3.2 km/h
162 18-10-2018 13:25:00 16.1 C 11.38 g/m*3 16.1 C 0 km/h
163 18-10-2018 13:30:00 16.2 C 11.31 g/m*3 16.2 C 0 km/h
164 18-10-2018 13:35:00 16.2 C 11.31 g/m*3 16.2 C 0 km/h
165 18-10-2018 13:40:00 16.3 C 11.38 g/m*3 16.3 C 0 km/h
166 18-10-2018 13:45:00 16.3 C 11.38 g/m*3 16.3 C 4.8 km/h
167 18-10-2018 13:50:00 16.3 C 11.24 g/m*3 16.3 C 4.8 km/h
168 18-10-2018 13:55:00 16.3 C 11.38 g/m*3 16.3 C 1.6 km/h
169 18-10-2018 14:00:00 16.3 C 11.38 g/m*3 16.3 C 0 km/h
170 18-10-2018 14:05:00 16.3 C 11.38 g/m*3 16.3 C 0 km/h
171 18-10-2018 14:10:00 16.4 C 11.45 g/m*3 16.4 C 1.6 km/h
172 18-10-2018 14:15:00 16.4 C 11.45 g/m*3 16.4 C 8.1 km/h
173 18-10-2018 14:20:00 16.4 C 11.58 g/m*3 16.4 C 4.8 km/h
174 18-10-2018 14:25:00 16.4 C 11.58 g/m*3 16.4 C 4.8 km/h
175 18-10-2018 14:30:00 16.4 C 11.58 g/m*3 16.4 C 3.2 km/h
Sensor: Nr:Datum:Temp:Abs-Feuchte:Windchill:Wind:
Aussen-T/F 176 18-10-2018 14:35:00 16.4 C 11.45 g/m*3 16.4 C 12.9 km/h
177 18-10-2018 14:40:00 16.4 C 11.45 g/m*3 16.4 C 4.8 km/h
178 18-10-2018 14:45:00 16.4 C 11.45 g/m*3 16.4 C 4.8 km/h
179 18-10-2018 14:50:00 16.4 C 11.45 g/m*3 16.4 C 4.8 km/h
180 18-10-2018 14:55:00 16.6 C 11.72 g/m*3 16.6 C 1.6 km/h
181 18-10-2018 15:00:00 16.7 C 11.65 g/m*3 16.7 C 4.8 km/h
182 18-10-2018 15:05:00 16.7 C 11.65 g/m*3 16.7 C 3.2 km/h
183 18-10-2018 15:10:00 16.8 C 11.58 g/m*3 16.8 C 8.1 km/h
184 18-10-2018 15:15:00 16.8 C 11.58 g/m*3 16.8 C 12.9 km/h
185 18-10-2018 15:20:00 16.8 C 11.58 g/m*3 16.8 C 11.3 km/h
186 18-10-2018 15:25:00 16.8 C 11.58 g/m*3 16.8 C 8.1 km/h
187 18-10-2018 15:30:00 16.7 C 11.51 g/m*3 16.7 C 6.4 km/h
188 18-10-2018 15:35:00 16.7 C 11.51 g/m*3 16.7 C 8.1 km/h
189 18-10-2018 15:40:00 16.7 C 11.51 g/m*3 16.7 C 9.7 km/h
190 18-10-2018 15:45:00 16.8 C 11.72 g/m*3 16.8 C 6.4 km/h
191 18-10-2018 15:50:00 16.8 C 11.72 g/m*3 16.8 C 3.2 km/h
192 18-10-2018 15:55:00 16.8 C 11.58 g/m*3 16.8 C 6.4 km/h
193 18-10-2018 16:00:00 16.8 C 11.58 g/m*3 16.8 C 4.8 km/h
194 18-10-2018 16:05:00 16.9 C 11.65 g/m*3 16.9 C 4.8 km/h
195 18-10-2018 16:10:00 16.9 C 11.65 g/m*3 16.9 C 4.8 km/h
196 18-10-2018 16:15:00 16.9 C 11.65 g/m*3 16.9 C 4.8 km/h
197 18-10-2018 16:20:00 16.9 C 11.65 g/m*3 16.9 C 4.8 km/h
198 18-10-2018 16:25:00 17 C 11.72 g/m*3 17 C 3.2 km/h
199 18-10-2018 16:30:00 17 C 11.58 g/m*3 17 C 8.1 km/h
200 18-10-2018 16:35:00 17.1 C 11.65 g/m*3 17.1 C 8.1 km/h
Sensor: Nr:Datum:Temp:Abs-Feuchte:Windchill:Wind:
Aussen-T/F 201 18-10-2018 16:40:00 17.1 C 11.65 g/m*3 17.1 C 4.8 km/h
202 18-10-2018 16:45:00 17.1 C 11.65 g/m*3 17.1 C 1.6 km/h
203 18-10-2018 16:50:00 17.2 C 11.57 g/m*3 17.2 C 8.1 km/h
204 18-10-2018 16:55:00 17.2 C 11.57 g/m*3 17.2 C 8.1 km/h
205 18-10-2018 17:00:00 17.2 C 11.57 g/m*3 17.2 C 8.1 km/h
206 18-10-2018 17:05:00 17.1 C 11.5 g/m*3 17.1 C 4.8 km/h
207 18-10-2018 17:10:00 17.1 C 11.5 g/m*3 17.1 C 4.8 km/h
208 18-10-2018 17:15:00 17.1 C 11.5 g/m*3 17.1 C 3.2 km/h
209 18-10-2018 17:20:00 17.1 C 11.5 g/m*3 17.1 C 3.2 km/h
210 18-10-2018 17:25:00 17.1 C 11.5 g/m*3 17.1 C 4.8 km/h
211 18-10-2018 17:30:00 17.1 C 11.5 g/m*3 17.1 C 4.8 km/h
212 18-10-2018 17:35:00 17.1 C 11.5 g/m*3 17.1 C 0 km/h
213 18-10-2018 17:40:00 17 C 11.43 g/m*3 17 C 4.8 km/h
214 18-10-2018 17:45:00 16.9 C 11.22 g/m*3 16.9 C 6.4 km/h
215 18-10-2018 17:50:00 16.9 C 11.36 g/m*3 16.9 C 1.6 km/h
216 18-10-2018 17:55:00 16.9 C 11.22 g/m*3 16.9 C 4.8 km/h
217 18-10-2018 18:00:00 16.9 C 11.36 g/m*3 16.9 C 1.6 km/h
218 18-10-2018 18:05:00 16.8 C 11.15 g/m*3 16.8 C 4.8 km/h
219 18-10-2018 18:10:00 16.8 C 11.15 g/m*3 16.8 C 1.6 km/h
220 18-10-2018 18:15:00 16.8 C 11.44 g/m*3 16.8 C 0 km/h
221 18-10-2018 18:20:00 16.7 C 11.37 g/m*3 16.7 C 0 km/h
222 18-10-2018 18:25:00 16.5 C 11.09 g/m*3 16.5 C 1.6 km/h
223 18-10-2018 18:30:00 16.4 C 11.17 g/m*3 16.4 C 0 km/h
224 18-10-2018 18:35:00 16.3 C 11.1 g/m*3 16.3 C 0 km/h
225 18-10-2018 18:40:00 16.1 C 11.1 g/m*3 16.1 C 0 km/h
Sensor: Nr:Datum:Temp:Abs-Feuchte:Windchill:Wind:
Aussen-T/F 226 18-10-2018 18:45:00 15.9 C 10.97 g/m*3 15.9 C 0 km/h
227 18-10-2018 18:50:00 15.7 C 10.97 g/m*3 15.7 C 0 km/h
228 18-10-2018 18:55:00 15.5 C 10.84 g/m*3 15.5 C 0 km/h
229 18-10-2018 19:00:00 15.4 C 10.9 g/m*3 15.4 C 0 km/h
230 18-10-2018 19:05:00 15.3 C 10.84 g/m*3 15.3 C 0 km/h
231 18-10-2018 19:10:00 15.2 C 10.9 g/m*3 15.2 C 0 km/h
232 18-10-2018 19:15:00 15.1 C 10.84 g/m*3 15.1 C 0 km/h
233 18-10-2018 19:20:00 15 C 10.77 g/m*3 15 C 0 km/h
234 18-10-2018 19:25:00 14.9 C 10.71 g/m*3 14.9 C 0 km/h
235 18-10-2018 19:30:00 14.8 C 10.64 g/m*3 14.8 C 0 km/h
236 18-10-2018 19:35:00 14.7 C 10.7 g/m*3 14.7 C 0 km/h
237 18-10-2018 19:40:00 14.7 C 10.7 g/m*3 14.7 C 0 km/h
238 18-10-2018 19:45:00 14.6 C 10.64 g/m*3 14.6 C 0 km/h
239 18-10-2018 19:50:00 14.4 C 10.51 g/m*3 14.4 C 0 km/h
240 18-10-2018 19:55:00 14.3 C 10.44 g/m*3 14.3 C 0 km/h
241 18-10-2018 20:00:00 14.2 C 10.5 g/m*3 14.2 C 0 km/h
242 18-10-2018 20:05:00 14.2 C 10.62 g/m*3 14.2 C 0 km/h
243 18-10-2018 20:10:00 14.2 C 10.62 g/m*3 14.2 C 0 km/h
244 18-10-2018 20:15:00 14.2 C 10.62 g/m*3 14.2 C 0 km/h
245 18-10-2018 20:20:00 14.3 C 10.69 g/m*3 14.3 C 0 km/h
246 18-10-2018 20:25:00 14.3 C 10.69 g/m*3 14.3 C 0 km/h
247 18-10-2018 20:30:00 14.4 C 10.75 g/m*3 14.4 C 0 km/h
248 18-10-2018 20:35:00 14.4 C 10.75 g/m*3 14.4 C 0 km/h
249 18-10-2018 20:40:00 14.4 C 10.63 g/m*3 14.4 C 0 km/h
250 18-10-2018 20:45:00 14.4 C 10.63 g/m*3 14.4 C 0 km/h
Sensor: Nr:Datum:Temp:Abs-Feuchte:Windchill:Wind:
Aussen-T/F 251 18-10-2018 20:50:00 14.3 C 10.57 g/m*3 14.3 C 0 km/h
252 18-10-2018 20:55:00 14.3 C 10.57 g/m*3 14.3 C 0 km/h
253 18-10-2018 21:00:00 14.3 C 10.57 g/m*3 14.3 C 0 km/h
254 18-10-2018 21:05:00 14.3 C 10.57 g/m*3 14.3 C 0 km/h
255 18-10-2018 21:10:00 14.2 C 10.5 g/m*3 14.2 C 0 km/h
256 18-10-2018 21:15:00 14.2 C 10.5 g/m*3 14.2 C 0 km/h
257 18-10-2018 21:20:00 14.2 C 10.5 g/m*3 14.2 C 0 km/h
258 18-10-2018 21:25:00 14.3 C 10.57 g/m*3 14.3 C 0 km/h
259 18-10-2018 21:30:00 14.3 C 10.57 g/m*3 14.3 C 0 km/h
260 18-10-2018 21:35:00 14.3 C 10.57 g/m*3 14.3 C 0 km/h
261 18-10-2018 21:40:00 14.3 C 10.57 g/m*3 14.3 C 0 km/h
262 18-10-2018 21:45:00 14.3 C 10.57 g/m*3 14.3 C 0 km/h
263 18-10-2018 21:50:00 14.3 C 10.57 g/m*3 14.3 C 0 km/h
264 18-10-2018 21:55:00 14.3 C 10.57 g/m*3 14.3 C 0 km/h
265 18-10-2018 22:00:00 14.3 C 10.57 g/m*3 14.3 C 0 km/h
266 18-10-2018 22:05:00 14.3 C 10.44 g/m*3 14.3 C 0 km/h
267 18-10-2018 22:10:00 14.3 C 10.44 g/m*3 14.3 C 0 km/h
268 18-10-2018 22:15:00 14.3 C 10.44 g/m*3 14.3 C 0 km/h
269 18-10-2018 22:20:00 14.3 C 10.44 g/m*3 14.3 C 0 km/h
270 18-10-2018 22:25:00 14.3 C 10.44 g/m*3 14.3 C 0 km/h
271 18-10-2018 22:30:00 14.3 C 10.44 g/m*3 14.3 C 0 km/h
272 18-10-2018 22:35:00 14.3 C 10.44 g/m*3 14.3 C 0 km/h
273 18-10-2018 22:40:00 14.2 C 10.38 g/m*3 14.2 C 0 km/h
274 18-10-2018 22:45:00 14.2 C 10.38 g/m*3 14.2 C 0 km/h
275 18-10-2018 22:50:00 14.2 C 10.38 g/m*3 14.2 C 0 km/h
Sensor: Nr:Datum:Temp:Abs-Feuchte:Windchill:Wind:
Aussen-T/F 276 18-10-2018 22:55:00 14.2 C 10.38 g/m*3 14.2 C 0 km/h
277 18-10-2018 23:00:00 14.2 C 10.38 g/m*3 14.2 C 0 km/h
278 18-10-2018 23:05:00 14.1 C 10.32 g/m*3 14.1 C 0 km/h
279 18-10-2018 23:10:00 14.1 C 10.32 g/m*3 14.1 C 0 km/h
280 18-10-2018 23:15:00 14.1 C 10.32 g/m*3 14.1 C 0 km/h
281 18-10-2018 23:20:00 14.1 C 10.32 g/m*3 14.1 C 0 km/h
282 18-10-2018 23:25:00 13.9 C 10.07 g/m*3 13.9 C 0 km/h
283 18-10-2018 23:30:00 13.8 C 10.01 g/m*3 13.8 C 0 km/h
284 18-10-2018 23:35:00 13.7 C 9.95 g/m*3 13.7 C 0 km/h
285 18-10-2018 23:40:00 13.7 C 9.95 g/m*3 13.7 C 0 km/h
286 18-10-2018 23:45:00 13.6 C 10 g/m*3 13.6 C 0 km/h
287 18-10-2018 23:50:00 13.6 C 10 g/m*3 13.6 C 0 km/h
288 18-10-2018 23:55:00 13.5 C 9.94 g/m*3 13.5 C 0 km/h
289 19-10-2018 00:00:00 13.4 C 9.76 g/m*3 13.4 C 0 km/h
290 19-10-2018 00:05:00 13.3 C 9.7 g/m*3 13.3 C 0 km/h
291 19-10-2018 00:10:00 13.2 C 9.64 g/m*3 13.2 C 0 km/h
292 19-10-2018 00:15:00 13.1 C 9.59 g/m*3 13.1 C 0 km/h
293 19-10-2018 00:20:00 12.9 C 9.47 g/m*3 12.9 C 0 km/h
294 19-10-2018 00:25:00 12.8 C 9.52 g/m*3 12.8 C 0 km/h
295 19-10-2018 00:30:00 12.8 C 9.52 g/m*3 12.8 C 1.6 km/h
296 19-10-2018 00:35:00 12.8 C 9.52 g/m*3 12.8 C 0 km/h
297 19-10-2018 00:40:00 12.8 C 9.41 g/m*3 12.8 C 0 km/h
298 19-10-2018 00:45:00 12.7 C 9.35 g/m*3 12.7 C 0 km/h
299 19-10-2018 00:50:00 12.7 C 9.35 g/m*3 12.7 C 0 km/h
300 19-10-2018 00:55:00 12.6 C 9.29 g/m*3 12.6 C 0 km/h
Sensor: Nr:Datum:Temp:Abs-Feuchte:Windchill:Wind:
Aussen-T/F 301 19-10-2018 01:00:00 12.5 C 9.24 g/m*3 12.5 C 0 km/h
302 19-10-2018 01:05:00 12.4 C 9.29 g/m*3 12.4 C 1.6 km/h
303 19-10-2018 01:10:00 12.3 C 9.23 g/m*3 12.3 C 0 km/h
304 19-10-2018 01:15:00 12.2 C 9.17 g/m*3 12.2 C 0 km/h
305 19-10-2018 01:20:00 12.1 C 9.12 g/m*3 12.1 C 0 km/h
306 19-10-2018 01:25:00 11.9 C 9.11 g/m*3 11.9 C 0 km/h
307 19-10-2018 01:30:00 11.8 C 9.05 g/m*3 11.8 C 0 km/h
308 19-10-2018 01:35:00 11.7 C 8.99 g/m*3 11.7 C 0 km/h
309 19-10-2018 01:40:00 11.6 C 8.94 g/m*3 11.6 C 0 km/h
310 19-10-2018 01:45:00 11.5 C 8.99 g/m*3 11.5 C 1.6 km/h
311 19-10-2018 01:50:00 11.5 C 8.99 g/m*3 11.5 C 0 km/h
312 19-10-2018 01:55:00 11.4 C 8.93 g/m*3 11.4 C 0 km/h
313 19-10-2018 02:00:00 11.3 C 8.87 g/m*3 11.3 C 0 km/h
314 19-10-2018 02:05:00 11.2 C 8.82 g/m*3 11.2 C 0 km/h
315 19-10-2018 02:10:00 11.1 C 8.86 g/m*3 11.1 C 0 km/h
316 19-10-2018 02:15:00 10.9 C 8.75 g/m*3 10.9 C 0 km/h
317 19-10-2018 02:20:00 10.9 C 8.75 g/m*3 10.9 C 0 km/h
318 19-10-2018 02:25:00 10.8 C 8.8 g/m*3 10.8 C 0 km/h
319 19-10-2018 02:30:00 10.8 C 8.8 g/m*3 10.8 C 0 km/h
320 19-10-2018 02:35:00 10.8 C 8.8 g/m*3 10.8 C 1.6 km/h
321 19-10-2018 02:40:00 10.8 C 8.8 g/m*3 10.8 C 0 km/h
322 19-10-2018 02:45:00 10.8 C 8.8 g/m*3 10.8 C 0 km/h
323 19-10-2018 02:50:00 10.8 C 8.8 g/m*3 10.8 C 0 km/h
324 19-10-2018 02:55:00 10.7 C 8.74 g/m*3 10.7 C 0 km/h
325 19-10-2018 03:00:00 10.6 C 8.69 g/m*3 10.6 C 0 km/h
Sensor: Nr:Datum:Temp:Abs-Feuchte:Windchill:Wind:
Aussen-T/F 326 19-10-2018 03:05:00 10.5 C 8.63 g/m*3 10.5 C 0 km/h
327 19-10-2018 03:10:00 10.4 C 8.58 g/m*3 10.4 C 0 km/h
328 19-10-2018 03:15:00 10.3 C 8.52 g/m*3 10.3 C 0 km/h
329 19-10-2018 03:20:00 10.2 C 8.47 g/m*3 10.2 C 0 km/h
330 19-10-2018 03:25:00 10.1 C 8.42 g/m*3 10.1 C 0 km/h
331 19-10-2018 03:30:00 9.9 C 8.31 g/m*3 9.9 C 0 km/h
332 19-10-2018 03:35:00 9.8 C 8.26 g/m*3 9.8 C 0 km/h
333 19-10-2018 03:40:00 9.7 C 8.3 g/m*3 9.7 C 0 km/h
334 19-10-2018 03:45:00 9.6 C 8.24 g/m*3 9.6 C 0 km/h
335 19-10-2018 03:50:00 9.5 C 8.28 g/m*3 9.5 C 0 km/h
336 19-10-2018 03:55:00 9.5 C 8.28 g/m*3 9.5 C 0 km/h
337 19-10-2018 04:00:00 9.4 C 8.23 g/m*3 9.4 C 0 km/h
338 19-10-2018 04:05:00 9.4 C 8.23 g/m*3 9.4 C 0 km/h
339 19-10-2018 04:10:00 9.3 C 8.18 g/m*3 9.3 C 0 km/h
340 19-10-2018 04:15:00 9.2 C 8.13 g/m*3 9.2 C 0 km/h
341 19-10-2018 04:20:00 9.1 C 8.16 g/m*3 9.1 C 0 km/h
342 19-10-2018 04:25:00 9 C 8.02 g/m*3 9 C 0 km/h
343 19-10-2018 04:30:00 8.9 C 7.97 g/m*3 8.9 C 0 km/h
344 19-10-2018 04:35:00 8.8 C 8.01 g/m*3 8.8 C 0 km/h
345 19-10-2018 04:40:00 8.8 C 8.09 g/m*3 8.8 C 0 km/h
346 19-10-2018 04:45:00 8.7 C 7.96 g/m*3 8.7 C 0 km/h
347 19-10-2018 04:50:00 8.6 C 7.91 g/m*3 8.6 C 0 km/h
348 19-10-2018 04:55:00 8.5 C 7.85 g/m*3 8.5 C 0 km/h
349 19-10-2018 05:00:00 8.6 C 7.99 g/m*3 8.6 C 0 km/h
350 19-10-2018 05:05:00 8.6 C 7.99 g/m*3 8.6 C 0 km/h
Sensor: Nr:Datum:Temp:Abs-Feuchte:Windchill:Wind:
Aussen-T/F 351 19-10-2018 05:10:00 8.5 C 7.94 g/m*3 8.5 C 0 km/h
352 19-10-2018 05:15:00 8.4 C 7.89 g/m*3 8.4 C 0 km/h
353 19-10-2018 05:20:00 8.4 C 7.89 g/m*3 8.4 C 0 km/h
354 19-10-2018 05:25:00 8.4 C 7.89 g/m*3 8.4 C 0 km/h
355 19-10-2018 05:30:00 8.3 C 7.84 g/m*3 8.3 C 0 km/h
356 19-10-2018 05:35:00 8.3 C 7.84 g/m*3 8.3 C 0 km/h
357 19-10-2018 05:40:00 8.3 C 7.84 g/m*3 8.3 C 0 km/h
358 19-10-2018 05:45:00 8.2 C 7.87 g/m*3 8.2 C 0 km/h
359 19-10-2018 05:50:00 8.2 C 7.87 g/m*3 8.2 C 0 km/h
360 19-10-2018 05:55:00 8.3 C 7.92 g/m*3 8.3 C 0 km/h
361 19-10-2018 06:00:00 8.4 C 7.97 g/m*3 8.4 C 0 km/h
362 19-10-2018 06:05:00 8.5 C 8.03 g/m*3 8.5 C 0 km/h
363 19-10-2018 06:10:00 8.4 C 7.97 g/m*3 8.4 C 0 km/h
364 19-10-2018 06:15:00 8.4 C 7.97 g/m*3 8.4 C 0 km/h
365 19-10-2018 06:20:00 8.3 C 7.92 g/m*3 8.3 C 0 km/h
366 19-10-2018 06:25:00 8.2 C 7.87 g/m*3 8.2 C 0 km/h
367 19-10-2018 06:30:00 7.9 C 7.72 g/m*3 7.9 C 0 km/h
368 19-10-2018 06:35:00 7.9 C 7.72 g/m*3 7.9 C 0 km/h
369 19-10-2018 06:40:00 7.9 C 7.72 g/m*3 7.9 C 0 km/h
370 19-10-2018 06:45:00 7.9 C 7.72 g/m*3 7.9 C 0 km/h
371 19-10-2018 06:50:00 7.9 C 7.72 g/m*3 7.9 C 0 km/h
372 19-10-2018 06:55:00 8 C 7.85 g/m*3 8 C 0 km/h
373 19-10-2018 07:00:00 8.1 C 7.9 g/m*3 8.1 C 0 km/h
374 19-10-2018 07:05:00 8.2 C 7.96 g/m*3 8.2 C 0 km/h
375 19-10-2018 07:10:00 8.2 C 7.96 g/m*3 8.2 C 0 km/h
Sensor: Nr:Datum:Temp:Abs-Feuchte:Windchill:Wind:
Aussen-T/F 376 19-10-2018 07:15:00 8.3 C 8.01 g/m*3 8.3 C 0 km/h
377 19-10-2018 07:20:00 8.4 C 8.06 g/m*3 8.4 C 0 km/h
378 19-10-2018 07:25:00 8.5 C 8.11 g/m*3 8.5 C 0 km/h
379 19-10-2018 07:30:00 8.6 C 8.16 g/m*3 8.6 C 0 km/h
380 19-10-2018 07:35:00 8.6 C 8.16 g/m*3 8.6 C 0 km/h
381 19-10-2018 07:40:00 8.6 C 8.16 g/m*3 8.6 C 0 km/h
382 19-10-2018 07:45:00 8.6 C 8.16 g/m*3 8.6 C 0 km/h
383 19-10-2018 07:50:00 8.6 C 8.16 g/m*3 8.6 C 0 km/h
384 19-10-2018 07:55:00 8.6 C 8.16 g/m*3 8.6 C 0 km/h
385 19-10-2018 08:00:00 8.6 C 8.16 g/m*3 8.6 C 0 km/h
386 19-10-2018 08:05:00 8.7 C 8.22 g/m*3 8.7 C 0 km/h
387 19-10-2018 08:10:00 8.7 C 8.22 g/m*3 8.7 C 0 km/h
388 19-10-2018 08:15:00 8.8 C 8.36 g/m*3 8.8 C 0 km/h
389 19-10-2018 08:20:00 8.8 C 8.36 g/m*3 8.8 C 0 km/h
390 19-10-2018 08:25:00 8.9 C 8.41 g/m*3 8.9 C 0 km/h
391 19-10-2018 08:30:00 9.1 C 8.52 g/m*3 9.1 C 0 km/h
392 19-10-2018 08:35:00 9.1 C 8.52 g/m*3 9.1 C 0 km/h
393 19-10-2018 08:40:00 9.2 C 8.57 g/m*3 9.2 C 0 km/h
394 19-10-2018 08:45:00 9.3 C 8.63 g/m*3 9.3 C 0 km/h
395 19-10-2018 08:50:00 9.4 C 8.68 g/m*3 9.4 C 0 km/h
396 19-10-2018 08:55:00 9.6 C 8.79 g/m*3 9.6 C 0 km/h
397 19-10-2018 09:00:00 9.7 C 8.85 g/m*3 9.7 C 0 km/h
398 19-10-2018 09:05:00 9.7 C 8.85 g/m*3 9.7 C 3.2 km/h
399 19-10-2018 09:10:00 9.8 C 8.91 g/m*3 9.8 C 0 km/h
400 19-10-2018 09:15:00 9.8 C 8.91 g/m*3 9.8 C 0 km/h
Sensor: Nr:Datum:Temp:Abs-Feuchte:Windchill:Wind:
Aussen-T/F 401 19-10-2018 09:20:00 9.8 C 8.91 g/m*3 9.8 C 1.6 km/h
402 19-10-2018 09:25:00 9.9 C 8.96 g/m*3 9.9 C 1.6 km/h
403 19-10-2018 09:30:00 9.9 C 8.96 g/m*3 9.9 C 3.2 km/h
404 19-10-2018 09:35:00 9.9 C 8.87 g/m*3 9.9 C 1.6 km/h
405 19-10-2018 09:40:00 9.9 C 8.87 g/m*3 9.9 C 0 km/h
406 19-10-2018 09:45:00 9.9 C 8.87 g/m*3 9.9 C 1.6 km/h
407 19-10-2018 09:50:00 10.1 C 8.98 g/m*3 10.1 C 1.6 km/h
408 19-10-2018 09:55:00 10.1 C 8.98 g/m*3 10.1 C 1.6 km/h
409 19-10-2018 10:00:00 10.2 C 9.04 g/m*3 10.2 C 3.2 km/h
410 19-10-2018 10:05:00 10.2 C 9.04 g/m*3 10.2 C 3.2 km/h
411 19-10-2018 10:10:00 10.3 C 9.1 g/m*3 10.3 C 3.2 km/h
412 19-10-2018 10:15:00 10.3 C 9.1 g/m*3 10.3 C 1.6 km/h
413 19-10-2018 10:20:00 10.4 C 9.06 g/m*3 10.4 C 3.2 km/h
414 19-10-2018 10:25:00 10.4 C 9.06 g/m*3 10.4 C 3.2 km/h
415 19-10-2018 10:30:00 10.6 C 9.17 g/m*3 10.6 C 0 km/h
416 19-10-2018 10:35:00 10.7 C 9.23 g/m*3 10.7 C 0 km/h
417 19-10-2018 10:40:00 10.7 C 9.23 g/m*3 10.7 C 1.6 km/h
418 19-10-2018 10:45:00 10.8 C 9.19 g/m*3 10.8 C 0 km/h
419 19-10-2018 10:50:00 10.9 C 9.25 g/m*3 10.9 C 0 km/h
420 19-10-2018 10:55:00 11 C 9.31 g/m*3 11 C 0 km/h
421 19-10-2018 11:00:00 11.1 C 9.37 g/m*3 11.1 C 1.6 km/h
422 19-10-2018 11:05:00 11.2 C 9.33 g/m*3 11.2 C 0 km/h
423 19-10-2018 11:10:00 11.3 C 9.38 g/m*3 11.3 C 1.6 km/h
424 19-10-2018 11:15:00 11.4 C 9.44 g/m*3 11.4 C 1.6 km/h
425 19-10-2018 11:20:00 11.5 C 9.4 g/m*3 11.5 C 1.6 km/h
Sensor: Nr:Datum:Temp:Abs-Feuchte:Windchill:Wind:
Aussen-T/F 426 19-10-2018 11:25:00 11.6 C 9.46 g/m*3 11.6 C 3.2 km/h
427 19-10-2018 11:30:00 11.6 C 9.46 g/m*3 11.6 C 1.6 km/h
428 19-10-2018 11:35:00 11.6 C 9.35 g/m*3 11.6 C 0 km/h
429 19-10-2018 11:40:00 11.7 C 9.41 g/m*3 11.7 C 1.6 km/h
430 19-10-2018 11:45:00 11.8 C 9.58 g/m*3 11.8 C 0 km/h
431 19-10-2018 11:50:00 11.9 C 9.53 g/m*3 11.9 C 0 km/h
432 19-10-2018 11:55:00 12 C 9.59 g/m*3 12 C 1.6 km/h
433 19-10-2018 12:00:00 12.1 C 9.54 g/m*3 12.1 C 1.6 km/h
434 19-10-2018 12:05:00 12.2 C 9.6 g/m*3 12.2 C 1.6 km/h
435 19-10-2018 12:10:00 12.4 C 9.62 g/m*3 12.4 C 1.6 km/h
436 19-10-2018 12:15:00 12.6 C 9.74 g/m*3 12.6 C 3.2 km/h
437 19-10-2018 12:20:00 12.7 C 9.68 g/m*3 12.7 C 1.6 km/h
438 19-10-2018 12:25:00 12.8 C 9.74 g/m*3 12.8 C 1.6 km/h
439 19-10-2018 12:30:00 13 C 9.75 g/m*3 13 C 1.6 km/h
440 19-10-2018 12:35:00 13.1 C 9.81 g/m*3 13.1 C 4.8 km/h
441 19-10-2018 12:40:00 13.2 C 9.87 g/m*3 13.2 C 4.8 km/h
442 19-10-2018 12:45:00 13.3 C 9.82 g/m*3 13.3 C 1.6 km/h
443 19-10-2018 12:50:00 13.4 C 9.88 g/m*3 13.4 C 1.6 km/h
444 19-10-2018 12:55:00 13.6 C 10 g/m*3 13.6 C 1.6 km/h
445 19-10-2018 13:00:00 13.7 C 10.07 g/m*3 13.7 C 0 km/h
446 19-10-2018 13:05:00 13.8 C 10.13 g/m*3 13.8 C 1.6 km/h
447 19-10-2018 13:10:00 13.9 C 10.07 g/m*3 13.9 C 0 km/h
448 19-10-2018 13:15:00 14.1 C 10.19 g/m*3 14.1 C 1.6 km/h
449 19-10-2018 13:20:00 14.2 C 10.26 g/m*3 14.2 C 1.6 km/h
450 19-10-2018 13:25:00 14.3 C 10.2 g/m*3 14.3 C 0 km/h
Sensor: Nr:Datum:Temp:Abs-Feuchte:Windchill:Wind:
Aussen-T/F 451 19-10-2018 13:30:00 14.4 C 10.14 g/m*3 14.4 C 1.6 km/h
452 19-10-2018 13:35:00 14.4 C 10.14 g/m*3 14.4 C 1.6 km/h
453 19-10-2018 13:40:00 14.5 C 10.2 g/m*3 14.5 C 0 km/h
454 19-10-2018 13:45:00 14.6 C 10.26 g/m*3 14.6 C 1.6 km/h
455 19-10-2018 13:50:00 14.7 C 10.32 g/m*3 14.7 C 1.6 km/h
456 19-10-2018 13:55:00 14.8 C 10.26 g/m*3 14.8 C 4.8 km/h
457 19-10-2018 14:00:00 14.9 C 10.2 g/m*3 14.9 C 1.6 km/h
458 19-10-2018 14:05:00 15 C 10.39 g/m*3 15 C 3.2 km/h
459 19-10-2018 14:10:00 15.1 C 10.32 g/m*3 15.1 C 3.2 km/h
460 19-10-2018 14:15:00 15.2 C 10.51 g/m*3 15.2 C 1.6 km/h
461 19-10-2018 14:20:00 15.3 C 10.45 g/m*3 15.3 C 6.4 km/h
462 19-10-2018 14:25:00 15.3 C 10.45 g/m*3 15.3 C 1.6 km/h
463 19-10-2018 14:30:00 15.4 C 10.38 g/m*3 15.4 C 4.8 km/h
464 19-10-2018 14:35:00 15.5 C 10.44 g/m*3 15.5 C 3.2 km/h
465 19-10-2018 14:40:00 15.6 C 10.51 g/m*3 15.6 C 4.8 km/h
466 19-10-2018 14:45:00 15.6 C 10.37 g/m*3 15.6 C 1.6 km/h
467 19-10-2018 14:50:00 15.6 C 10.51 g/m*3 15.6 C 1.6 km/h
468 19-10-2018 14:55:00 15.7 C 10.44 g/m*3 15.7 C 3.2 km/h
469 19-10-2018 15:00:00 15.7 C 10.44 g/m*3 15.7 C 4.8 km/h
470 19-10-2018 15:05:00 15.8 C 10.5 g/m*3 15.8 C 3.2 km/h
471 19-10-2018 15:10:00 15.8 C 10.5 g/m*3 15.8 C 4.8 km/h
472 19-10-2018 15:15:00 15.8 C 10.5 g/m*3 15.8 C 3.2 km/h
473 19-10-2018 15:20:00 15.9 C 10.43 g/m*3 15.9 C 0 km/h
474 19-10-2018 15:25:00 15.9 C 10.56 g/m*3 15.9 C 3.2 km/h
475 19-10-2018 15:30:00 16 C 10.63 g/m*3 16 C 1.6 km/h
Sensor: Nr:Datum:Temp:Abs-Feuchte:Windchill:Wind:
Aussen-T/F 476 19-10-2018 15:35:00 16 C 10.49 g/m*3 16 C 1.6 km/h
477 19-10-2018 15:40:00 16.1 C 10.55 g/m*3 16.1 C 0 km/h
478 19-10-2018 15:45:00 16.1 C 10.83 g/m*3 16.1 C 0 km/h
479 19-10-2018 15:50:00 16.1 C 10.83 g/m*3 16.1 C 0 km/h
480 19-10-2018 15:55:00 16.1 C 10.69 g/m*3 16.1 C 4.8 km/h
481 19-10-2018 16:00:00 16.1 C 10.69 g/m*3 16.1 C 1.6 km/h
482 19-10-2018 16:05:00 16.1 C 10.69 g/m*3 16.1 C 0 km/h
483 19-10-2018 16:10:00 16.1 C 10.55 g/m*3 16.1 C 1.6 km/h
484 19-10-2018 16:15:00 16.2 C 10.76 g/m*3 16.2 C 0 km/h
485 19-10-2018 16:20:00 16.2 C 10.76 g/m*3 16.2 C 3.2 km/h
486 19-10-2018 16:25:00 16.2 C 10.62 g/m*3 16.2 C 0 km/h
487 19-10-2018 16:30:00 16.3 C 10.82 g/m*3 16.3 C 0 km/h
488 19-10-2018 16:35:00 16.3 C 10.96 g/m*3 16.3 C 0 km/h
489 19-10-2018 16:40:00 16.3 C 10.82 g/m*3 16.3 C 0 km/h
490 19-10-2018 16:45:00 16.3 C 10.96 g/m*3 16.3 C 0 km/h
491 19-10-2018 16:50:00 16.2 C 11.03 g/m*3 16.2 C 0 km/h
492 19-10-2018 16:55:00 16.1 C 10.97 g/m*3 16.1 C 0 km/h
493 19-10-2018 17:00:00 16 C 10.9 g/m*3 16 C 0 km/h
494 19-10-2018 17:05:00 15.9 C 10.83 g/m*3 15.9 C 0 km/h
495 19-10-2018 17:10:00 15.8 C 10.9 g/m*3 15.8 C 0 km/h
496 19-10-2018 17:15:00 15.7 C 10.84 g/m*3 15.7 C 0 km/h
497 19-10-2018 17:20:00 15.7 C 10.97 g/m*3 15.7 C 0 km/h
498 19-10-2018 17:25:00 15.6 C 10.91 g/m*3 15.6 C 0 km/h
499 19-10-2018 17:30:00 15.5 C 10.84 g/m*3 15.5 C 0 km/h
500 19-10-2018 17:35:00 15.4 C 10.77 g/m*3 15.4 C 0 km/h
Sensor: Nr:Datum:Temp:Abs-Feuchte:Windchill:Wind:
Aussen-T/F 501 19-10-2018 17:40:00 15.3 C 10.71 g/m*3 15.3 C 0 km/h
502 19-10-2018 17:45:00 15.2 C 10.64 g/m*3 15.2 C 0 km/h
503 19-10-2018 17:50:00 15.1 C 10.71 g/m*3 15.1 C 0 km/h
504 19-10-2018 17:55:00 14.9 C 10.58 g/m*3 14.9 C 0 km/h
505 19-10-2018 18:00:00 14.8 C 10.51 g/m*3 14.8 C 0 km/h
506 19-10-2018 18:05:00 14.7 C 10.58 g/m*3 14.7 C 0 km/h
507 19-10-2018 18:10:00 14.6 C 10.51 g/m*3 14.6 C 1.6 km/h
508 19-10-2018 18:15:00 14.4 C 10.38 g/m*3 14.4 C 0 km/h
509 19-10-2018 18:20:00 14.3 C 10.32 g/m*3 14.3 C 0 km/h
510 19-10-2018 18:25:00 14.2 C 10.26 g/m*3 14.2 C 0 km/h
511 19-10-2018 18:30:00 14.1 C 10.32 g/m*3 14.1 C 0 km/h
512 19-10-2018 18:35:00 13.9 C 10.19 g/m*3 13.9 C 0 km/h
513 19-10-2018 18:40:00 13.8 C 10.13 g/m*3 13.8 C 0 km/h
514 19-10-2018 18:45:00 13.6 C 10.12 g/m*3 13.6 C 0 km/h
515 19-10-2018 18:50:00 13.5 C 10.06 g/m*3 13.5 C 0 km/h
516 19-10-2018 18:55:00 13.3 C 9.94 g/m*3 13.3 C 3.2 km/h
517 19-10-2018 19:00:00 13.3 C 10.05 g/m*3 13.3 C 1.6 km/h
518 19-10-2018 19:05:00 13.2 C 9.99 g/m*3 13.2 C 0 km/h
519 19-10-2018 19:10:00 13.2 C 10.1 g/m*3 13.2 C 0 km/h
520 19-10-2018 19:15:00 13.3 C 10.17 g/m*3 13.3 C 0 km/h
521 19-10-2018 19:20:00 13.2 C 9.99 g/m*3 13.2 C 0 km/h
522 19-10-2018 19:25:00 13.2 C 10.1 g/m*3 13.2 C 0 km/h
523 19-10-2018 19:30:00 13.2 C 10.1 g/m*3 13.2 C 0 km/h
524 19-10-2018 19:35:00 13.3 C 10.17 g/m*3 13.3 C 0 km/h
525 19-10-2018 19:40:00 13.3 C 10.28 g/m*3 13.3 C 0 km/h
Sensor: Nr:Datum:Temp:Abs-Feuchte:Windchill:Wind:
Aussen-T/F 526 19-10-2018 19:45:00 13.4 C 10.35 g/m*3 13.4 C 0 km/h
527 19-10-2018 19:50:00 13.4 C 10.23 g/m*3 13.4 C 0 km/h
528 19-10-2018 19:55:00 13.6 C 10.36 g/m*3 13.6 C 0 km/h
529 19-10-2018 20:00:00 13.6 C 10.24 g/m*3 13.6 C 0 km/h
530 19-10-2018 20:05:00 13.6 C 10.24 g/m*3 13.6 C 0 km/h
531 19-10-2018 20:10:00 13.6 C 10.12 g/m*3 13.6 C 0 km/h
532 19-10-2018 20:15:00 13.6 C 10.12 g/m*3 13.6 C 0 km/h
533 19-10-2018 20:20:00 13.5 C 10.06 g/m*3 13.5 C 0 km/h
534 19-10-2018 20:25:00 13.4 C 10.11 g/m*3 13.4 C 0 km/h
535 19-10-2018 20:30:00 13.4 C 10.11 g/m*3 13.4 C 0 km/h
536 19-10-2018 20:35:00 13.4 C 10.11 g/m*3 13.4 C 0 km/h
537 19-10-2018 20:40:00 13.4 C 10.11 g/m*3 13.4 C 0 km/h
538 19-10-2018 20:45:00 13.4 C 10.23 g/m*3 13.4 C 0 km/h
539 19-10-2018 20:50:00 13.4 C 10.23 g/m*3 13.4 C 0 km/h
540 19-10-2018 20:55:00 13.4 C 10.23 g/m*3 13.4 C 0 km/h
541 19-10-2018 21:00:00 13.4 C 10.23 g/m*3 13.4 C 0 km/h
542 19-10-2018 21:05:00 13.3 C 10.05 g/m*3 13.3 C 0 km/h
543 19-10-2018 21:10:00 13.3 C 10.05 g/m*3 13.3 C 0 km/h
544 19-10-2018 21:15:00 13.3 C 10.05 g/m*3 13.3 C 0 km/h
545 19-10-2018 21:20:00 13.3 C 10.05 g/m*3 13.3 C 0 km/h
546 19-10-2018 21:25:00 13.3 C 10.05 g/m*3 13.3 C 0 km/h
547 19-10-2018 21:30:00 13.2 C 9.99 g/m*3 13.2 C 0 km/h
548 19-10-2018 21:35:00 13.2 C 9.99 g/m*3 13.2 C 0 km/h
549 19-10-2018 21:40:00 13.2 C 10.1 g/m*3 13.2 C 0 km/h
550 19-10-2018 21:45:00 13.2 C 10.1 g/m*3 13.2 C 0 km/h
Sensor: Nr:Datum:Temp:Abs-Feuchte:Windchill:Wind:
Aussen-T/F 551 19-10-2018 21:50:00 13.2 C 10.1 g/m*3 13.2 C 0 km/h
552 19-10-2018 21:55:00 13.2 C 10.1 g/m*3 13.2 C 0 km/h
553 19-10-2018 22:00:00 13.2 C 10.1 g/m*3 13.2 C 0 km/h
554 19-10-2018 22:05:00 13.2 C 10.1 g/m*3 13.2 C 0 km/h
555 19-10-2018 22:10:00 13.1 C 9.93 g/m*3 13.1 C 1.6 km/h
556 19-10-2018 22:15:00 13 C 9.87 g/m*3 13 C 0 km/h
557 19-10-2018 22:20:00 12.8 C 9.74 g/m*3 12.8 C 0 km/h
558 19-10-2018 22:25:00 12.7 C 9.68 g/m*3 12.7 C 0 km/h
559 19-10-2018 22:30:00 12.7 C 9.8 g/m*3 12.7 C 0 km/h
560 19-10-2018 22:35:00 12.6 C 9.74 g/m*3 12.6 C 0 km/h
561 19-10-2018 22:40:00 12.5 C 9.68 g/m*3 12.5 C 0 km/h
562 19-10-2018 22:45:00 12.4 C 9.72 g/m*3 12.4 C 0 km/h
563 19-10-2018 22:50:00 12.4 C 9.72 g/m*3 12.4 C 0 km/h
564 19-10-2018 22:55:00 12.4 C 9.72 g/m*3 12.4 C 0 km/h
565 19-10-2018 23:00:00 12.6 C 9.96 g/m*3 12.6 C 0 km/h
566 19-10-2018 23:05:00 12.6 C 9.96 g/m*3 12.6 C 0 km/h
567 19-10-2018 23:10:00 12.6 C 9.85 g/m*3 12.6 C 0 km/h
568 19-10-2018 23:15:00 12.6 C 9.85 g/m*3 12.6 C 0 km/h
569 19-10-2018 23:20:00 12.6 C 9.85 g/m*3 12.6 C 0 km/h
570 19-10-2018 23:25:00 12.6 C 9.85 g/m*3 12.6 C 0 km/h
571 19-10-2018 23:30:00 12.4 C 9.72 g/m*3 12.4 C 0 km/h
572 19-10-2018 23:35:00 12.3 C 9.56 g/m*3 12.3 C 0 km/h
573 19-10-2018 23:40:00 12.3 C 9.66 g/m*3 12.3 C 0 km/h
574 19-10-2018 23:45:00 12.2 C 9.6 g/m*3 12.2 C 0 km/h
575 19-10-2018 23:50:00 12.1 C 9.44 g/m*3 12.1 C 0 km/h
Sensor: Nr:Datum:Temp:Abs-Feuchte:Windchill:Wind:
Aussen-T/F 576 19-10-2018 23:55:00 11.9 C 9.32 g/m*3 11.9 C 0 km/h
577 20-10-2018 00:00:00 11.8 C 9.37 g/m*3 11.8 C 0 km/h
578 20-10-2018 00:05:00 11.8 C 9.37 g/m*3 11.8 C 0 km/h
579 20-10-2018 00:10:00 11.7 C 9.31 g/m*3 11.7 C 0 km/h
580 20-10-2018 00:15:00 11.6 C 9.35 g/m*3 11.6 C 0 km/h
581 20-10-2018 00:20:00 11.5 C 9.19 g/m*3 11.5 C 0 km/h
582 20-10-2018 00:25:00 11.4 C 9.24 g/m*3 11.4 C 0 km/h
583 20-10-2018 00:30:00 11.4 C 9.34 g/m*3 11.4 C 0 km/h
584 20-10-2018 00:35:00 11.4 C 9.34 g/m*3 11.4 C 0 km/h
585 20-10-2018 00:40:00 11.4 C 9.34 g/m*3 11.4 C 0 km/h
586 20-10-2018 00:45:00 11.5 C 9.4 g/m*3 11.5 C 0 km/h
587 20-10-2018 00:50:00 11.5 C 9.4 g/m*3 11.5 C 0 km/h
588 20-10-2018 00:55:00 11.5 C 9.4 g/m*3 11.5 C 0 km/h
589 20-10-2018 01:00:00 11.6 C 9.46 g/m*3 11.6 C 0 km/h
590 20-10-2018 01:05:00 11.6 C 9.46 g/m*3 11.6 C 0 km/h
591 20-10-2018 01:10:00 11.6 C 9.46 g/m*3 11.6 C 0 km/h
592 20-10-2018 01:15:00 11.6 C 9.56 g/m*3 11.6 C 0 km/h
593 20-10-2018 01:20:00 11.6 C 9.56 g/m*3 11.6 C 0 km/h
594 20-10-2018 01:25:00 11.6 C 9.56 g/m*3 11.6 C 0 km/h
595 20-10-2018 01:30:00 11.6 C 9.56 g/m*3 11.6 C 0 km/h
596 20-10-2018 01:35:00 11.7 C 9.62 g/m*3 11.7 C 0 km/h
597 20-10-2018 01:40:00 11.7 C 9.62 g/m*3 11.7 C 0 km/h
598 20-10-2018 01:45:00 11.7 C 9.62 g/m*3 11.7 C 0 km/h
599 20-10-2018 01:50:00 11.7 C 9.62 g/m*3 11.7 C 0 km/h
600 20-10-2018 01:55:00 11.7 C 9.52 g/m*3 11.7 C 0 km/h
Sensor: Nr:Datum:Temp:Abs-Feuchte:Windchill:Wind:
Aussen-T/F 601 20-10-2018 02:00:00 11.8 C 9.58 g/m*3 11.8 C 0 km/h
602 20-10-2018 02:05:00 11.8 C 9.58 g/m*3 11.8 C 0 km/h
603 20-10-2018 02:10:00 11.9 C 9.64 g/m*3 11.9 C 0 km/h
604 20-10-2018 02:15:00 11.9 C 9.64 g/m*3 11.9 C 0 km/h
605 20-10-2018 02:20:00 11.9 C 9.64 g/m*3 11.9 C 0 km/h
606 20-10-2018 02:25:00 11.9 C 9.64 g/m*3 11.9 C 3.2 km/h
607 20-10-2018 02:30:00 11.9 C 9.64 g/m*3 11.9 C 0 km/h
608 20-10-2018 02:35:00 12 C 9.59 g/m*3 12 C 6.4 km/h
609 20-10-2018 02:40:00 12.1 C 9.65 g/m*3 12.1 C 1.6 km/h
610 20-10-2018 02:45:00 12.1 C 9.54 g/m*3 12.1 C 3.2 km/h
611 20-10-2018 02:50:00 12.2 C 9.6 g/m*3 12.2 C 3.2 km/h
612 20-10-2018 02:55:00 12.2 C 9.6 g/m*3 12.2 C 3.2 km/h
613 20-10-2018 03:00:00 12.2 C 9.6 g/m*3 12.2 C 0 km/h
614 20-10-2018 03:05:00 12.2 C 9.6 g/m*3 12.2 C 0 km/h
615 20-10-2018 03:10:00 12.2 C 9.5 g/m*3 12.2 C 0 km/h
616 20-10-2018 03:15:00 12.2 C 9.5 g/m*3 12.2 C 0 km/h
617 20-10-2018 03:20:00 12.1 C 9.44 g/m*3 12.1 C 0 km/h
618 20-10-2018 03:25:00 12 C 9.38 g/m*3 12 C 0 km/h
619 20-10-2018 03:30:00 11.9 C 9.32 g/m*3 11.9 C 0 km/h
620 20-10-2018 03:35:00 11.8 C 9.26 g/m*3 11.8 C 0 km/h
621 20-10-2018 03:40:00 11.7 C 9.2 g/m*3 11.7 C 0 km/h
622 20-10-2018 03:45:00 11.6 C 9.25 g/m*3 11.6 C 0 km/h
623 20-10-2018 03:50:00 11.4 C 9.14 g/m*3 11.4 C 0 km/h
624 20-10-2018 03:55:00 11.4 C 9.14 g/m*3 11.4 C 0 km/h
625 20-10-2018 04:00:00 11.3 C 9.18 g/m*3 11.3 C 0 km/h
Sensor: Nr:Datum:Temp:Abs-Feuchte:Windchill:Wind:
Aussen-T/F 626 20-10-2018 04:05:00 11.3 C 9.18 g/m*3 11.3 C 0 km/h
627 20-10-2018 04:10:00 11.3 C 9.28 g/m*3 11.3 C 0 km/h
628 20-10-2018 04:15:00 11.3 C 9.28 g/m*3 11.3 C 4.8 km/h
629 20-10-2018 04:20:00 11.3 C 9.28 g/m*3 11.3 C 1.6 km/h
630 20-10-2018 04:25:00 11.3 C 9.28 g/m*3 11.3 C 0 km/h
631 20-10-2018 04:30:00 11.3 C 9.28 g/m*3 11.3 C 0 km/h
632 20-10-2018 04:35:00 11.4 C 9.34 g/m*3 11.4 C 0 km/h
633 20-10-2018 04:40:00 11.4 C 9.34 g/m*3 11.4 C 6.4 km/h
634 20-10-2018 04:45:00 11.4 C 9.24 g/m*3 11.4 C 8.1 km/h
635 20-10-2018 04:50:00 11.5 C 9.3 g/m*3 11.5 C 8.1 km/h
636 20-10-2018 04:55:00 11.5 C 9.3 g/m*3 11.5 C 6.4 km/h
637 20-10-2018 05:00:00 11.5 C 9.19 g/m*3 11.5 C 8.1 km/h
638 20-10-2018 05:05:00 11.5 C 9.19 g/m*3 11.5 C 1.6 km/h
639 20-10-2018 05:10:00 11.4 C 9.14 g/m*3 11.4 C 0 km/h
640 20-10-2018 05:15:00 11.4 C 9.14 g/m*3 11.4 C 0 km/h
641 20-10-2018 05:20:00 11.2 C 9.02 g/m*3 11.2 C 1.6 km/h
642 20-10-2018 05:25:00 11.1 C 8.96 g/m*3 11.1 C 0 km/h
643 20-10-2018 05:30:00 10.8 C 8.8 g/m*3 10.8 C 0 km/h
644 20-10-2018 05:35:00 10.7 C 8.74 g/m*3 10.7 C 0 km/h
645 20-10-2018 05:40:00 10.6 C 8.78 g/m*3 10.6 C 4.8 km/h
646 20-10-2018 05:45:00 10.4 C 8.67 g/m*3 10.4 C 0 km/h
647 20-10-2018 05:50:00 10.4 C 8.77 g/m*3 9.16 C 9.7 km/h
648 20-10-2018 05:55:00 10.4 C 8.77 g/m*3 10.4 C 4.8 km/h
649 20-10-2018 06:00:00 10.4 C 8.77 g/m*3 9.83 C 6.4 km/h
650 20-10-2018 06:05:00 10.3 C 8.71 g/m*3 10.3 C 0 km/h
Sensor: Nr:Datum:Temp:Abs-Feuchte:Windchill:Wind:
Aussen-T/F 651 20-10-2018 06:10:00 10.2 C 8.66 g/m*3 10.2 C 0 km/h
652 20-10-2018 06:15:00 10 C 8.46 g/m*3 10 C 0 km/h
653 20-10-2018 06:20:00 9.8 C 8.35 g/m*3 9.8 C 0 km/h
654 20-10-2018 06:25:00 9.7 C 8.3 g/m*3 9.7 C 0 km/h
655 20-10-2018 06:30:00 9.4 C 8.14 g/m*3 9.4 C 0 km/h
656 20-10-2018 06:35:00 9.3 C 8.09 g/m*3 9.3 C 0 km/h
657 20-10-2018 06:40:00 9.1 C 8.07 g/m*3 9.1 C 0 km/h
658 20-10-2018 06:45:00 9 C 8.02 g/m*3 9 C 0 km/h
659 20-10-2018 06:50:00 8.9 C 7.97 g/m*3 8.9 C 0 km/h
660 20-10-2018 06:55:00 8.9 C 8.06 g/m*3 8.9 C 0 km/h
661 20-10-2018 07:00:00 8.9 C 8.15 g/m*3 8.9 C 0 km/h
662 20-10-2018 07:05:00 9.1 C 8.25 g/m*3 9.1 C 0 km/h
663 20-10-2018 07:10:00 9.1 C 8.25 g/m*3 9.1 C 0 km/h
664 20-10-2018 07:15:00 9.1 C 8.25 g/m*3 9.1 C 0 km/h
665 20-10-2018 07:20:00 9.2 C 8.39 g/m*3 9.2 C 0 km/h
666 20-10-2018 07:25:00 9.3 C 8.45 g/m*3 9.3 C 0 km/h
667 20-10-2018 07:30:00 9.4 C 8.5 g/m*3 9.4 C 0 km/h
668 20-10-2018 07:35:00 9.4 C 8.5 g/m*3 9.4 C 4.8 km/h
669 20-10-2018 07:40:00 9.4 C 8.5 g/m*3 9.4 C 1.6 km/h
670 20-10-2018 07:45:00 9.4 C 8.5 g/m*3 9.4 C 1.6 km/h
671 20-10-2018 07:50:00 9.5 C 8.56 g/m*3 9.5 C 0 km/h
672 20-10-2018 07:55:00 9.5 C 8.56 g/m*3 9.5 C 0 km/h
673 20-10-2018 08:00:00 9.5 C 8.56 g/m*3 9.5 C 0 km/h
674 20-10-2018 08:05:00 9.5 C 8.56 g/m*3 9.5 C 3.2 km/h
675 20-10-2018 08:10:00 9.6 C 8.61 g/m*3 9.6 C 3.2 km/h
Sensor: Nr:Datum:Temp:Abs-Feuchte:Windchill:Wind:
Aussen-T/F 676 20-10-2018 08:15:00 9.6 C 8.61 g/m*3 9.6 C 4.8 km/h
677 20-10-2018 08:20:00 9.6 C 8.61 g/m*3 8.52 C 8.1 km/h
678 20-10-2018 08:25:00 9.6 C 8.61 g/m*3 9.6 C 3.2 km/h
679 20-10-2018 08:30:00 9.6 C 8.61 g/m*3 9.6 C 4.8 km/h
680 20-10-2018 08:35:00 9.6 C 8.61 g/m*3 9.6 C 4.8 km/h
681 20-10-2018 08:40:00 9.6 C 8.61 g/m*3 9.6 C 4.8 km/h
682 20-10-2018 08:45:00 9.6 C 8.61 g/m*3 9.6 C 3.2 km/h
683 20-10-2018 08:50:00 9.6 C 8.61 g/m*3 9.6 C 1.6 km/h
684 20-10-2018 08:55:00 9.6 C 8.61 g/m*3 9.6 C 1.6 km/h
685 20-10-2018 09:00:00 9.6 C 8.61 g/m*3 9.6 C 0 km/h
686 20-10-2018 09:05:00 9.6 C 8.61 g/m*3 9.6 C 4.8 km/h
687 20-10-2018 09:10:00 9.7 C 8.67 g/m*3 9.7 C 1.6 km/h
688 20-10-2018 09:15:00 9.7 C 8.67 g/m*3 9.7 C 4.8 km/h
689 20-10-2018 09:20:00 9.7 C 8.67 g/m*3 9.7 C 4.8 km/h
690 20-10-2018 09:25:00 9.7 C 8.67 g/m*3 9.7 C 0 km/h
691 20-10-2018 09:30:00 9.7 C 8.67 g/m*3 9.7 C 0 km/h
692 20-10-2018 09:35:00 9.8 C 8.72 g/m*3 9.8 C 0 km/h
693 20-10-2018 09:40:00 9.8 C 8.72 g/m*3 9.8 C 0 km/h
694 20-10-2018 09:45:00 9.8 C 8.72 g/m*3 9.8 C 1.6 km/h
695 20-10-2018 09:50:00 9.9 C 8.78 g/m*3 9.9 C 1.6 km/h
696 20-10-2018 09:55:00 9.9 C 8.68 g/m*3 9.9 C 1.6 km/h
697 20-10-2018 10:00:00 10 C 8.74 g/m*3 10 C 1.6 km/h
698 20-10-2018 10:05:00 10.1 C 8.79 g/m*3 10.1 C 0 km/h
699 20-10-2018 10:10:00 10.1 C 8.79 g/m*3 10.1 C 0 km/h
700 20-10-2018 10:15:00 10.2 C 8.85 g/m*3 10.2 C 0 km/h
Sensor: Nr:Datum:Temp:Abs-Feuchte:Windchill:Wind:
Aussen-T/F 701 20-10-2018 10:20:00 10.2 C 8.85 g/m*3 10.2 C 1.6 km/h
702 20-10-2018 10:25:00 10.3 C 8.91 g/m*3 10.3 C 3.2 km/h
703 20-10-2018 10:30:00 10.3 C 8.81 g/m*3 10.3 C 3.2 km/h
704 20-10-2018 10:35:00 10.3 C 8.81 g/m*3 10.3 C 1.6 km/h
705 20-10-2018 10:40:00 10.3 C 8.81 g/m*3 10.3 C 0 km/h
706 20-10-2018 10:45:00 10.3 C 8.81 g/m*3 10.3 C 3.2 km/h
707 20-10-2018 10:50:00 10.3 C 8.81 g/m*3 10.3 C 3.2 km/h
708 20-10-2018 10:55:00 10.3 C 8.71 g/m*3 10.3 C 3.2 km/h
709 20-10-2018 11:00:00 10.3 C 8.71 g/m*3 10.3 C 4.8 km/h
710 20-10-2018 11:05:00 10.4 C 8.77 g/m*3 10.4 C 4.8 km/h
711 20-10-2018 11:10:00 10.4 C 8.77 g/m*3 10.4 C 4.8 km/h
712 20-10-2018 11:15:00 10.4 C 8.77 g/m*3 10.4 C 0 km/h
713 20-10-2018 11:20:00 10.4 C 8.77 g/m*3 10.4 C 1.6 km/h
714 20-10-2018 11:25:00 10.6 C 8.88 g/m*3 10.6 C 4.8 km/h
715 20-10-2018 11:30:00 10.6 C 8.88 g/m*3 10.6 C 4.8 km/h
716 20-10-2018 11:35:00 10.7 C 8.94 g/m*3 10.7 C 3.2 km/h
717 20-10-2018 11:40:00 10.8 C 8.9 g/m*3 10.8 C 3.2 km/h
718 20-10-2018 11:45:00 10.8 C 8.9 g/m*3 10.29 C 6.4 km/h
719 20-10-2018 11:50:00 10.8 C 8.8 g/m*3 10.8 C 1.6 km/h
720 20-10-2018 11:55:00 10.8 C 8.8 g/m*3 10.8 C 3.2 km/h
721 20-10-2018 12:00:00 10.8 C 8.8 g/m*3 10.8 C 0 km/h
722 20-10-2018 12:05:00 10.8 C 8.8 g/m*3 10.8 C 0 km/h
723 20-10-2018 12:10:00 10.8 C 8.8 g/m*3 10.8 C 0 km/h
724 20-10-2018 12:15:00 10.9 C 8.85 g/m*3 10.9 C 0 km/h
725 20-10-2018 12:20:00 11 C 8.91 g/m*3 11 C 1.6 km/h
Sensor: Nr:Datum:Temp:Abs-Feuchte:Windchill:Wind:
Aussen-T/F 726 20-10-2018 12:25:00 11.1 C 8.96 g/m*3 11.1 C 1.6 km/h
727 20-10-2018 12:30:00 11.2 C 8.92 g/m*3 11.2 C 0 km/h
728 20-10-2018 12:35:00 11.3 C 8.98 g/m*3 11.3 C 1.6 km/h
729 20-10-2018 12:40:00 11.4 C 9.03 g/m*3 11.4 C 0 km/h
730 20-10-2018 12:45:00 11.5 C 9.09 g/m*3 11.5 C 0 km/h
731 20-10-2018 12:50:00 11.6 C 9.04 g/m*3 11.6 C 0 km/h
732 20-10-2018 12:55:00 11.7 C 9.1 g/m*3 11.7 C 1.6 km/h
733 20-10-2018 13:00:00 11.8 C 9.16 g/m*3 11.8 C 0 km/h
734 20-10-2018 13:05:00 12 C 9.27 g/m*3 12 C 0 km/h
735 20-10-2018 13:10:00 12.1 C 9.22 g/m*3 12.1 C 0 km/h
736 20-10-2018 13:15:00 12.2 C 9.06 g/m*3 12.2 C 1.6 km/h
737 20-10-2018 13:20:00 12.3 C 9.12 g/m*3 12.3 C 0 km/h
738 20-10-2018 13:25:00 12.4 C 9.07 g/m*3 12.4 C 3.2 km/h
739 20-10-2018 13:30:00 12.5 C 9.13 g/m*3 12.5 C 3.2 km/h
740 20-10-2018 13:35:00 12.6 C 9.07 g/m*3 12.6 C 3.2 km/h
741 20-10-2018 13:40:00 12.7 C 9.13 g/m*3 12.7 C 4.8 km/h
742 20-10-2018 13:45:00 12.8 C 9.07 g/m*3 12.8 C 3.2 km/h
743 20-10-2018 13:50:00 13 C 9.19 g/m*3 13 C 1.6 km/h
744 20-10-2018 13:55:00 13.3 C 9.36 g/m*3 13.3 C 1.6 km/h
745 20-10-2018 14:00:00 13.4 C 9.3 g/m*3 13.4 C 1.6 km/h
746 20-10-2018 14:05:00 13.6 C 9.3 g/m*3 13.6 C 0 km/h
747 20-10-2018 14:10:00 13.7 C 9.24 g/m*3 13.7 C 1.6 km/h
748 20-10-2018 14:15:00 13.8 C 9.17 g/m*3 13.8 C 4.8 km/h
749 20-10-2018 14:20:00 13.9 C 9.11 g/m*3 13.9 C 1.6 km/h
750 20-10-2018 14:25:00 14.1 C 9.22 g/m*3 14.1 C 11.3 km/h
Sensor: Nr:Datum:Temp:Abs-Feuchte:Windchill:Wind:
Aussen-T/F 751 20-10-2018 14:30:00 14.2 C 9.16 g/m*3 14.2 C 11.3 km/h
752 20-10-2018 14:35:00 14.3 C 9.09 g/m*3 14.3 C 4.8 km/h
753 20-10-2018 14:40:00 14.4 C 9.15 g/m*3 14.4 C 0 km/h
754 20-10-2018 14:45:00 14.4 C 9.02 g/m*3 14.4 C 4.8 km/h
755 20-10-2018 14:50:00 14.4 C 8.9 g/m*3 14.4 C 3.2 km/h
756 20-10-2018 14:55:00 14.4 C 9.02 g/m*3 14.4 C 6.4 km/h
757 20-10-2018 15:00:00 14.4 C 9.02 g/m*3 14.4 C 4.8 km/h
758 20-10-2018 15:05:00 14.4 C 8.9 g/m*3 14.4 C 6.4 km/h
759 20-10-2018 15:10:00 14.4 C 8.78 g/m*3 14.4 C 6.4 km/h
760 20-10-2018 15:15:00 14.4 C 8.78 g/m*3 14.4 C 8.1 km/h
761 20-10-2018 15:20:00 14.4 C 8.65 g/m*3 14.4 C 6.4 km/h
762 20-10-2018 15:25:00 14.4 C 8.78 g/m*3 14.4 C 8.1 km/h
763 20-10-2018 15:30:00 14.4 C 8.78 g/m*3 14.4 C 3.2 km/h
764 20-10-2018 15:35:00 14.4 C 8.65 g/m*3 14.4 C 8.1 km/h
765 20-10-2018 15:40:00 14.4 C 8.65 g/m*3 14.4 C 9.7 km/h
766 20-10-2018 15:45:00 14.5 C 8.46 g/m*3 14.5 C 4.8 km/h
767 20-10-2018 15:50:00 14.5 C 8.58 g/m*3 14.5 C 4.8 km/h
768 20-10-2018 15:55:00 14.6 C 8.76 g/m*3 14.6 C 8.1 km/h
769 20-10-2018 16:00:00 14.6 C 8.63 g/m*3 14.6 C 4.8 km/h
770 20-10-2018 16:05:00 14.6 C 8.63 g/m*3 14.6 C 4.8 km/h
771 20-10-2018 16:10:00 14.6 C 8.63 g/m*3 14.6 C 6.4 km/h
772 20-10-2018 16:15:00 14.6 C 8.63 g/m*3 14.6 C 0 km/h
773 20-10-2018 16:20:00 14.6 C 8.63 g/m*3 14.6 C 3.2 km/h
774 20-10-2018 16:25:00 14.6 C 8.88 g/m*3 14.6 C 0 km/h
775 20-10-2018 16:30:00 14.6 C 8.63 g/m*3 14.6 C 9.7 km/h
Sensor: Nr:Datum:Temp:Abs-Feuchte:Windchill:Wind:
Aussen-T/F 776 20-10-2018 16:35:00 14.6 C 8.63 g/m*3 14.6 C 8.1 km/h
777 20-10-2018 16:40:00 14.6 C 8.63 g/m*3 14.6 C 8.1 km/h
778 20-10-2018 16:45:00 14.5 C 8.71 g/m*3 14.5 C 6.4 km/h
779 20-10-2018 16:50:00 14.5 C 8.71 g/m*3 14.5 C 8.1 km/h
780 20-10-2018 16:55:00 14.5 C 8.83 g/m*3 14.5 C 4.8 km/h
781 20-10-2018 17:00:00 14.5 C 8.83 g/m*3 14.5 C 8.1 km/h
782 20-10-2018 17:05:00 14.4 C 8.78 g/m*3 14.4 C 8.1 km/h
783 20-10-2018 17:10:00 14.4 C 8.9 g/m*3 14.4 C 6.4 km/h
784 20-10-2018 17:15:00 14.4 C 8.9 g/m*3 14.4 C 6.4 km/h
785 20-10-2018 17:20:00 14.3 C 8.85 g/m*3 14.3 C 9.7 km/h
786 20-10-2018 17:25:00 14.2 C 8.79 g/m*3 14.2 C 6.4 km/h
787 20-10-2018 17:30:00 14.2 C 8.79 g/m*3 14.2 C 8.1 km/h
788 20-10-2018 17:35:00 14.1 C 8.74 g/m*3 14.1 C 4.8 km/h
789 20-10-2018 17:40:00 14 C 8.81 g/m*3 14 C 9.7 km/h
790 20-10-2018 17:45:00 13.9 C 8.75 g/m*3 13.9 C 4.8 km/h
791 20-10-2018 17:50:00 13.8 C 8.7 g/m*3 13.8 C 4.8 km/h
792 20-10-2018 17:55:00 13.7 C 8.64 g/m*3 13.7 C 1.6 km/h
793 20-10-2018 18:00:00 13.7 C 8.64 g/m*3 13.7 C 3.2 km/h
794 20-10-2018 18:05:00 13.6 C 8.71 g/m*3 13.6 C 0 km/h
795 20-10-2018 18:10:00 13.4 C 8.6 g/m*3 13.4 C 0 km/h
796 20-10-2018 18:15:00 13.2 C 8.61 g/m*3 13.2 C 1.6 km/h
797 20-10-2018 18:20:00 12.9 C 8.57 g/m*3 12.9 C 0 km/h
798 20-10-2018 18:25:00 12.6 C 8.52 g/m*3 12.6 C 0 km/h
799 20-10-2018 18:30:00 12.3 C 8.47 g/m*3 12.3 C 0 km/h
800 20-10-2018 18:35:00 12.2 C 8.42 g/m*3 12.2 C 0 km/h
Sensor: Nr:Datum:Temp:Abs-Feuchte:Windchill:Wind:
Aussen-T/F 801 20-10-2018 18:40:00 11.9 C 8.37 g/m*3 11.9 C 0 km/h
802 20-10-2018 18:45:00 11.7 C 8.37 g/m*3 11.7 C 0 km/h
803 20-10-2018 18:50:00 11.6 C 8.32 g/m*3 11.6 C 0 km/h
804 20-10-2018 18:55:00 11.4 C 8.31 g/m*3 11.4 C 0 km/h
805 20-10-2018 19:00:00 11.2 C 8.21 g/m*3 11.2 C 0 km/h
806 20-10-2018 19:05:00 11.1 C 8.26 g/m*3 11.1 C 0 km/h
807 20-10-2018 19:10:00 10.9 C 8.16 g/m*3 10.9 C 0 km/h
808 20-10-2018 19:15:00 10.8 C 8.11 g/m*3 10.8 C 0 km/h
809 20-10-2018 19:20:00 10.7 C 8.15 g/m*3 10.7 C 0 km/h
810 20-10-2018 19:25:00 10.6 C 8.1 g/m*3 10.6 C 0 km/h
811 20-10-2018 19:30:00 10.6 C 8.1 g/m*3 10.6 C 0 km/h
812 20-10-2018 19:35:00 10.5 C 8.05 g/m*3 10.5 C 0 km/h
813 20-10-2018 19:40:00 10.4 C 8.1 g/m*3 10.4 C 0 km/h
814 20-10-2018 19:45:00 10.3 C 8.04 g/m*3 10.3 C 0 km/h
815 20-10-2018 19:50:00 10.2 C 7.99 g/m*3 10.2 C 0 km/h
816 20-10-2018 19:55:00 10.1 C 7.94 g/m*3 10.1 C 0 km/h
817 20-10-2018 20:00:00 10 C 7.89 g/m*3 10 C 0 km/h
818 20-10-2018 20:05:00 9.8 C 7.89 g/m*3 9.8 C 0 km/h
819 20-10-2018 20:10:00 9.7 C 7.84 g/m*3 9.7 C 0 km/h
820 20-10-2018 20:15:00 9.6 C 7.88 g/m*3 9.6 C 0 km/h
821 20-10-2018 20:20:00 9.6 C 7.88 g/m*3 9.6 C 0 km/h
822 20-10-2018 20:25:00 9.5 C 7.83 g/m*3 9.5 C 0 km/h
823 20-10-2018 20:30:00 9.5 C 7.92 g/m*3 9.5 C 0 km/h
824 20-10-2018 20:35:00 9.5 C 7.92 g/m*3 9.5 C 0 km/h
825 20-10-2018 20:40:00 9.4 C 7.87 g/m*3 9.4 C 0 km/h
Sensor: Nr:Datum:Temp:Abs-Feuchte:Windchill:Wind:
Aussen-T/F 826 20-10-2018 20:45:00 9.4 C 7.87 g/m*3 9.4 C 0 km/h
827 20-10-2018 20:50:00 9.4 C 7.87 g/m*3 9.4 C 0 km/h
828 20-10-2018 20:55:00 9.4 C 7.87 g/m*3 9.4 C 0 km/h
829 20-10-2018 21:00:00 9.3 C 7.73 g/m*3 9.3 C 0 km/h
830 20-10-2018 21:05:00 9.3 C 7.82 g/m*3 9.3 C 0 km/h
831 20-10-2018 21:10:00 9.2 C 7.77 g/m*3 9.2 C 0 km/h
832 20-10-2018 21:15:00 9.1 C 7.72 g/m*3 9.1 C 0 km/h
833 20-10-2018 21:20:00 9.1 C 7.81 g/m*3 9.1 C 0 km/h
834 20-10-2018 21:25:00 8.9 C 7.62 g/m*3 8.9 C 0 km/h
835 20-10-2018 21:30:00 8.8 C 7.57 g/m*3 8.8 C 0 km/h
836 20-10-2018 21:35:00 8.7 C 7.52 g/m*3 8.7 C 0 km/h
837 20-10-2018 21:40:00 8.6 C 7.56 g/m*3 8.6 C 0 km/h
838 20-10-2018 21:45:00 8.5 C 7.51 g/m*3 8.5 C 0 km/h
839 20-10-2018 21:50:00 8.4 C 7.47 g/m*3 8.4 C 0 km/h
840 20-10-2018 21:55:00 8.2 C 7.37 g/m*3 8.2 C 0 km/h
841 20-10-2018 22:00:00 8.1 C 7.32 g/m*3 8.1 C 0 km/h
842 20-10-2018 22:05:00 7.9 C 7.31 g/m*3 7.9 C 0 km/h
843 20-10-2018 22:10:00 7.8 C 7.26 g/m*3 7.8 C 0 km/h
844 20-10-2018 22:15:00 7.7 C 7.22 g/m*3 7.7 C 0 km/h
845 20-10-2018 22:20:00 7.6 C 7.17 g/m*3 7.6 C 0 km/h
846 20-10-2018 22:25:00 7.6 C 7.25 g/m*3 7.6 C 0 km/h
847 20-10-2018 22:30:00 7.5 C 7.2 g/m*3 7.5 C 0 km/h
848 20-10-2018 22:35:00 7.4 C 7.16 g/m*3 7.4 C 0 km/h
849 20-10-2018 22:40:00 7.3 C 7.11 g/m*3 7.3 C 0 km/h
850 20-10-2018 22:45:00 7.3 C 7.11 g/m*3 7.3 C 0 km/h
Sensor: Nr:Datum:Temp:Abs-Feuchte:Windchill:Wind:
Aussen-T/F 851 20-10-2018 22:50:00 7.2 C 7.06 g/m*3 7.2 C 0 km/h
852 20-10-2018 22:55:00 7 C 6.97 g/m*3 7 C 0 km/h
853 20-10-2018 23:00:00 6.9 C 7.01 g/m*3 6.9 C 0 km/h
854 20-10-2018 23:05:00 6.8 C 6.88 g/m*3 6.8 C 0 km/h
855 20-10-2018 23:10:00 6.7 C 6.91 g/m*3 6.7 C 0 km/h
856 20-10-2018 23:15:00 6.6 C 6.87 g/m*3 6.6 C 0 km/h
857 20-10-2018 23:20:00 6.6 C 6.87 g/m*3 6.6 C 0 km/h
858 20-10-2018 23:25:00 6.5 C 6.9 g/m*3 6.5 C 0 km/h
859 20-10-2018 23:30:00 6.5 C 6.9 g/m*3 6.5 C 0 km/h
860 20-10-2018 23:35:00 6.4 C 6.85 g/m*3 6.4 C 0 km/h
861 20-10-2018 23:40:00 6.5 C 6.9 g/m*3 6.5 C 0 km/h
862 20-10-2018 23:45:00 6.4 C 6.85 g/m*3 6.4 C 0 km/h
863 20-10-2018 23:50:00 6.3 C 6.81 g/m*3 6.3 C 0 km/h
864 20-10-2018 23:55:00 6.2 C 6.77 g/m*3 6.2 C 0 km/h

Legende:
   Min
   Max


Maximal/Minimal-Werte vom 18.10.2018 - 20.10.2018

Sensor Min Max Avg
Temp
(Aussen-T/F)
6.2 °C
20-10-2018  23:55:00
17.2 °C
18-10-2018  16:50:00
12.39 °C
Abs-Feuchte
(Aussen-T/F)
6.77 g/m*3
20-10-2018  23:55:00
11.72 g/m*3
18-10-2018  14:55:00
9.58 g/m*3
Windchill
(Aussen-T/F)
6.2 C
20-10-2018  23:55:00
17.2 C
18-10-2018  16:50:00
12.37 C

Die Daten stammen von einer Davis Vantage Pro 2 Wetter-Station und werden unter Linux mit der Software wview2wettercgi und aufbereitet. Alle Angaben erfolgen ohne Gewähr für ihre Vollständigkeit oder Richtigkeit.
Kontakt: Rainer Krienke krienke@uni-koblenz.de . Meine Webseiten an der Uni Koblenz oder privat.
Version: $Revision: 0.78 $